sensor_id;sensor_type;location;lat;lon;timestamp;P1;durP1;ratioP1;P2;durP2;ratioP2
32748;SDS011;19119;52.474;13.710;2023-03-03T00:00:42;25.60;;;7.68;;
32748;SDS011;19119;52.474;13.710;2023-03-03T00:03:10;22.55;;;7.63;;
32748;SDS011;19119;52.474;13.710;2023-03-03T00:05:39;22.85;;;8.07;;
32748;SDS011;19119;52.474;13.710;2023-03-03T00:08:06;25.60;;;8.85;;
32748;SDS011;19119;52.474;13.710;2023-03-03T00:10:32;28.10;;;7.75;;
32748;SDS011;19119;52.474;13.710;2023-03-03T00:12:58;23.88;;;8.00;;
32748;SDS011;19119;52.474;13.710;2023-03-03T00:15:24;32.70;;;10.43;;
32748;SDS011;19119;52.474;13.710;2023-03-03T00:17:51;24.33;;;8.60;;
32748;SDS011;19119;52.474;13.710;2023-03-03T00:25:48;28.92;;;9.20;;
32748;SDS011;19119;52.474;13.710;2023-03-03T00:30:54;31.88;;;9.10;;
32748;SDS011;19119;52.474;13.710;2023-03-03T00:33:32;24.80;;;8.23;;
32748;SDS011;19119;52.474;13.710;2023-03-03T00:38:45;28.88;;;9.63;;
32748;SDS011;19119;52.474;13.710;2023-03-03T00:41:17;31.90;;;9.15;;
32748;SDS011;19119;52.474;13.710;2023-03-03T00:43:49;27.83;;;8.57;;
32748;SDS011;19119;52.474;13.710;2023-03-03T00:46:17;21.85;;;7.43;;
32748;SDS011;19119;52.474;13.710;2023-03-03T00:48:44;31.73;;;9.38;;
32748;SDS011;19119;52.474;13.710;2023-03-03T00:53:48;29.30;;;9.05;;
32748;SDS011;19119;52.474;13.710;2023-03-03T00:56:14;27.45;;;10.00;;
32748;SDS011;19119;52.474;13.710;2023-03-03T00:58:40;29.42;;;8.35;;
32748;SDS011;19119;52.474;13.710;2023-03-03T01:01:08;25.58;;;8.98;;
32748;SDS011;19119;52.474;13.710;2023-03-03T01:03:33;26.17;;;8.50;;
32748;SDS011;19119;52.474;13.710;2023-03-03T01:05:59;29.45;;;8.27;;
32748;SDS011;19119;52.474;13.710;2023-03-03T01:08:25;32.42;;;8.68;;
32748;SDS011;19119;52.474;13.710;2023-03-03T01:10:51;35.45;;;10.70;;
32748;SDS011;19119;52.474;13.710;2023-03-03T01:13:21;36.78;;;10.20;;
32748;SDS011;19119;52.474;13.710;2023-03-03T01:15:53;31.33;;;9.48;;
32748;SDS011;19119;52.474;13.710;2023-03-03T01:18:19;30.38;;;9.90;;
32748;SDS011;19119;52.474;13.710;2023-03-03T01:20:45;32.58;;;9.63;;
32748;SDS011;19119;52.474;13.710;2023-03-03T01:23:10;29.27;;;10.48;;
32748;SDS011;19119;52.474;13.710;2023-03-03T01:25:36;27.15;;;8.75;;
32748;SDS011;19119;52.474;13.710;2023-03-03T01:28:05;31.05;;;9.35;;
32748;SDS011;19119;52.474;13.710;2023-03-03T01:30:30;19.23;;;8.93;;
32748;SDS011;19119;52.474;13.710;2023-03-03T01:32:56;28.45;;;8.38;;
32748;SDS011;19119;52.474;13.710;2023-03-03T01:35:22;26.00;;;8.38;;
32748;SDS011;19119;52.474;13.710;2023-03-03T01:37:48;22.83;;;9.40;;
32748;SDS011;19119;52.474;13.710;2023-03-03T01:40:16;26.35;;;8.20;;
32748;SDS011;19119;52.474;13.710;2023-03-03T01:42:44;24.95;;;7.60;;
32748;SDS011;19119;52.474;13.710;2023-03-03T01:45:12;26.48;;;8.63;;
32748;SDS011;19119;52.474;13.710;2023-03-03T01:47:41;25.02;;;6.85;;
32748;SDS011;19119;52.474;13.710;2023-03-03T01:50:11;24.27;;;7.63;;
32748;SDS011;19119;52.474;13.710;2023-03-03T01:52:41;22.77;;;6.57;;
32748;SDS011;19119;52.474;13.710;2023-03-03T01:55:11;28.45;;;7.22;;
32748;SDS011;19119;52.474;13.710;2023-03-03T01:57:43;26.83;;;8.98;;
32748;SDS011;19119;52.474;13.710;2023-03-03T02:00:12;26.52;;;7.30;;
32748;SDS011;19119;52.474;13.710;2023-03-03T02:02:39;24.83;;;8.35;;
32748;SDS011;19119;52.474;13.710;2023-03-03T02:05:07;23.15;;;7.93;;
32748;SDS011;19119;52.474;13.710;2023-03-03T02:07:32;25.33;;;8.10;;
32748;SDS011;19119;52.474;13.710;2023-03-03T02:12:40;21.27;;;8.90;;
32748;SDS011;19119;52.474;13.710;2023-03-03T02:17:54;25.02;;;8.27;;
32748;SDS011;19119;52.474;13.710;2023-03-03T02:20:26;23.00;;;7.00;;
32748;SDS011;19119;52.474;13.710;2023-03-03T02:28:16;24.40;;;8.15;;
32748;SDS011;19119;52.474;13.710;2023-03-03T02:30:42;30.55;;;8.65;;
32748;SDS011;19119;52.474;13.710;2023-03-03T02:33:08;25.10;;;7.60;;
32748;SDS011;19119;52.474;13.710;2023-03-03T02:40:56;23.00;;;7.47;;
32748;SDS011;19119;52.474;13.710;2023-03-03T02:43:38;22.77;;;8.13;;
32748;SDS011;19119;52.474;13.710;2023-03-03T02:46:09;24.35;;;7.40;;
32748;SDS011;19119;52.474;13.710;2023-03-03T02:48:35;22.50;;;7.00;;
32748;SDS011;19119;52.474;13.710;2023-03-03T02:51:01;23.30;;;7.55;;
32748;SDS011;19119;52.474;13.710;2023-03-03T02:53:26;22.80;;;7.85;;
32748;SDS011;19119;52.474;13.710;2023-03-03T02:55:52;23.27;;;7.43;;
32748;SDS011;19119;52.474;13.710;2023-03-03T02:58:17;18.90;;;8.15;;
32748;SDS011;19119;52.474;13.710;2023-03-03T03:00:43;24.42;;;8.65;;
32748;SDS011;19119;52.474;13.710;2023-03-03T03:03:11;21.50;;;8.55;;
32748;SDS011;19119;52.474;13.710;2023-03-03T03:05:37;22.42;;;8.02;;
32748;SDS011;19119;52.474;13.710;2023-03-03T03:08:05;22.05;;;8.27;;
32748;SDS011;19119;52.474;13.710;2023-03-03T03:10:31;25.20;;;8.70;;
32748;SDS011;19119;52.474;13.710;2023-03-03T03:12:57;29.00;;;7.03;;
32748;SDS011;19119;52.474;13.710;2023-03-03T03:15:22;22.58;;;7.13;;
32748;SDS011;19119;52.474;13.710;2023-03-03T03:17:48;25.88;;;8.27;;
32748;SDS011;19119;52.474;13.710;2023-03-03T03:20:13;22.92;;;7.55;;
32748;SDS011;19119;52.474;13.710;2023-03-03T03:22:39;25.67;;;8.60;;
32748;SDS011;19119;52.474;13.710;2023-03-03T03:25:05;24.10;;;6.63;;
32748;SDS011;19119;52.474;13.710;2023-03-03T03:27:31;21.48;;;6.35;;
32748;SDS011;19119;52.474;13.710;2023-03-03T03:29:57;26.40;;;8.40;;
32748;SDS011;19119;52.474;13.710;2023-03-03T03:32:22;26.10;;;7.57;;
32748;SDS011;19119;52.474;13.710;2023-03-03T03:34:48;21.23;;;7.20;;
32748;SDS011;19119;52.474;13.710;2023-03-03T03:37:13;31.17;;;9.35;;
32748;SDS011;19119;52.474;13.710;2023-03-03T03:39:39;23.08;;;7.18;;
32748;SDS011;19119;52.474;13.710;2023-03-03T03:42:05;24.50;;;8.40;;
32748;SDS011;19119;52.474;13.710;2023-03-03T03:44:30;24.75;;;8.73;;
32748;SDS011;19119;52.474;13.710;2023-03-03T03:46:56;28.02;;;8.40;;
32748;SDS011;19119;52.474;13.710;2023-03-03T03:49:21;26.48;;;7.55;;
32748;SDS011;19119;52.474;13.710;2023-03-03T03:51:47;29.40;;;8.75;;
32748;SDS011;19119;52.474;13.710;2023-03-03T03:54:15;31.70;;;9.07;;
32748;SDS011;19119;52.474;13.710;2023-03-03T03:56:41;26.00;;;8.80;;
32748;SDS011;19119;52.474;13.710;2023-03-03T03:59:06;31.35;;;8.63;;
32748;SDS011;19119;52.474;13.710;2023-03-03T04:01:32;25.60;;;8.25;;
32748;SDS011;19119;52.474;13.710;2023-03-03T04:03:58;27.63;;;9.05;;
32748;SDS011;19119;52.474;13.710;2023-03-03T04:06:23;26.15;;;9.23;;
32748;SDS011;19119;52.474;13.710;2023-03-03T04:08:49;25.92;;;8.63;;
32748;SDS011;19119;52.474;13.710;2023-03-03T04:11:15;26.98;;;8.52;;
32748;SDS011;19119;52.474;13.710;2023-03-03T04:13:42;26.70;;;9.50;;
32748;SDS011;19119;52.474;13.710;2023-03-03T04:16:07;26.17;;;9.00;;
32748;SDS011;19119;52.474;13.710;2023-03-03T04:18:33;26.77;;;9.68;;
32748;SDS011;19119;52.474;13.710;2023-03-03T04:20:58;28.25;;;8.73;;
32748;SDS011;19119;52.474;13.710;2023-03-03T04:23:24;25.67;;;9.75;;
32748;SDS011;19119;52.474;13.710;2023-03-03T04:25:49;25.02;;;8.75;;
32748;SDS011;19119;52.474;13.710;2023-03-03T04:28:15;25.70;;;8.68;;
32748;SDS011;19119;52.474;13.710;2023-03-03T04:30:41;28.10;;;7.95;;
32748;SDS011;19119;52.474;13.710;2023-03-03T04:33:07;31.42;;;9.90;;
32748;SDS011;19119;52.474;13.710;2023-03-03T04:35:33;25.63;;;8.18;;
32748;SDS011;19119;52.474;13.710;2023-03-03T04:37:58;24.63;;;8.48;;
32748;SDS011;19119;52.474;13.710;2023-03-03T04:40:24;26.40;;;9.40;;
32748;SDS011;19119;52.474;13.710;2023-03-03T04:42:49;28.30;;;8.93;;
32748;SDS011;19119;52.474;13.710;2023-03-03T04:45:15;27.23;;;9.57;;
32748;SDS011;19119;52.474;13.710;2023-03-03T04:47:41;27.77;;;8.27;;
32748;SDS011;19119;52.474;13.710;2023-03-03T04:50:07;25.00;;;8.52;;
32748;SDS011;19119;52.474;13.710;2023-03-03T04:52:33;29.15;;;10.38;;
32748;SDS011;19119;52.474;13.710;2023-03-03T04:54:59;25.45;;;9.50;;
32748;SDS011;19119;52.474;13.710;2023-03-03T04:57:25;26.10;;;8.43;;
32748;SDS011;19119;52.474;13.710;2023-03-03T04:59:50;24.23;;;9.70;;
32748;SDS011;19119;52.474;13.710;2023-03-03T05:02:16;18.88;;;7.35;;
32748;SDS011;19119;52.474;13.710;2023-03-03T05:04:42;27.98;;;10.07;;
32748;SDS011;19119;52.474;13.710;2023-03-03T05:07:08;26.67;;;8.70;;
32748;SDS011;19119;52.474;13.710;2023-03-03T05:09:33;25.67;;;9.35;;
32748;SDS011;19119;52.474;13.710;2023-03-03T05:11:59;23.85;;;8.65;;
32748;SDS011;19119;52.474;13.710;2023-03-03T05:14:25;23.00;;;9.00;;
32748;SDS011;19119;52.474;13.710;2023-03-03T05:16:51;25.25;;;8.45;;
32748;SDS011;19119;52.474;13.710;2023-03-03T05:19:16;22.77;;;8.02;;
32748;SDS011;19119;52.474;13.710;2023-03-03T05:21:42;23.33;;;7.97;;
32748;SDS011;19119;52.474;13.710;2023-03-03T05:24:08;25.38;;;7.80;;
32748;SDS011;19119;52.474;13.710;2023-03-03T05:26:34;20.73;;;6.32;;
32748;SDS011;19119;52.474;13.710;2023-03-03T05:29:00;24.05;;;8.10;;
32748;SDS011;19119;52.474;13.710;2023-03-03T05:31:25;16.33;;;6.32;;
32748;SDS011;19119;52.474;13.710;2023-03-03T05:33:51;25.08;;;9.88;;
32748;SDS011;19119;52.474;13.710;2023-03-03T05:36:17;21.10;;;7.53;;
32748;SDS011;19119;52.474;13.710;2023-03-03T05:38:43;27.85;;;10.15;;
32748;SDS011;19119;52.474;13.710;2023-03-03T05:41:08;24.17;;;10.00;;
32748;SDS011;19119;52.474;13.710;2023-03-03T05:43:34;24.08;;;8.70;;
32748;SDS011;19119;52.474;13.710;2023-03-03T05:46:00;19.88;;;7.30;;
32748;SDS011;19119;52.474;13.710;2023-03-03T05:48:28;28.27;;;9.05;;
32748;SDS011;19119;52.474;13.710;2023-03-03T05:50:56;28.38;;;9.45;;
32748;SDS011;19119;52.474;13.710;2023-03-03T05:53:23;19.65;;;7.95;;
32748;SDS011;19119;52.474;13.710;2023-03-03T05:55:49;24.25;;;8.30;;
32748;SDS011;19119;52.474;13.710;2023-03-03T05:58:14;22.45;;;8.32;;
32748;SDS011;19119;52.474;13.710;2023-03-03T06:00:40;25.48;;;7.70;;
32748;SDS011;19119;52.474;13.710;2023-03-03T06:03:05;22.58;;;8.05;;
32748;SDS011;19119;52.474;13.710;2023-03-03T06:05:31;28.70;;;9.20;;
32748;SDS011;19119;52.474;13.710;2023-03-03T06:07:56;28.77;;;10.57;;
32748;SDS011;19119;52.474;13.710;2023-03-03T06:10:22;26.40;;;8.88;;
32748;SDS011;19119;52.474;13.710;2023-03-03T06:12:48;27.25;;;8.05;;
32748;SDS011;19119;52.474;13.710;2023-03-03T06:15:13;26.63;;;8.73;;
32748;SDS011;19119;52.474;13.710;2023-03-03T06:17:39;36.05;;;11.82;;
32748;SDS011;19119;52.474;13.710;2023-03-03T06:20:04;27.95;;;10.50;;
32748;SDS011;19119;52.474;13.710;2023-03-03T06:22:34;28.67;;;10.23;;
32748;SDS011;19119;52.474;13.710;2023-03-03T06:24:59;25.30;;;9.10;;
32748;SDS011;19119;52.474;13.710;2023-03-03T06:27:25;34.38;;;9.93;;
32748;SDS011;19119;52.474;13.710;2023-03-03T06:29:50;30.50;;;9.55;;
32748;SDS011;19119;52.474;13.710;2023-03-03T06:32:19;29.25;;;9.55;;
32748;SDS011;19119;52.474;13.710;2023-03-03T06:34:44;27.70;;;9.20;;
32748;SDS011;19119;52.474;13.710;2023-03-03T06:37:10;25.27;;;9.00;;
32748;SDS011;19119;52.474;13.710;2023-03-03T06:39:36;27.27;;;9.65;;
32748;SDS011;19119;52.474;13.710;2023-03-03T06:42:01;23.27;;;9.63;;
32748;SDS011;19119;52.474;13.710;2023-03-03T06:44:30;31.77;;;8.85;;
32748;SDS011;19119;52.474;13.710;2023-03-03T06:46:55;24.10;;;8.45;;
32748;SDS011;19119;52.474;13.710;2023-03-03T06:49:22;20.23;;;7.57;;
32748;SDS011;19119;52.474;13.710;2023-03-03T06:51:47;22.02;;;6.85;;
32748;SDS011;19119;52.474;13.710;2023-03-03T06:54:17;26.40;;;8.50;;
32748;SDS011;19119;52.474;13.710;2023-03-03T06:56:45;21.20;;;8.23;;
32748;SDS011;19119;52.474;13.710;2023-03-03T06:59:12;19.42;;;6.72;;
32748;SDS011;19119;52.474;13.710;2023-03-03T07:01:44;37.15;;;8.43;;
32748;SDS011;19119;52.474;13.710;2023-03-03T07:06:54;20.65;;;7.75;;
32748;SDS011;19119;52.474;13.710;2023-03-03T07:09:21;24.52;;;9.18;;
32748;SDS011;19119;52.474;13.710;2023-03-03T07:11:56;28.20;;;9.53;;
32748;SDS011;19119;52.474;13.710;2023-03-03T07:14:33;31.70;;;10.07;;
32748;SDS011;19119;52.474;13.710;2023-03-03T07:17:09;25.23;;;8.40;;
32748;SDS011;19119;52.474;13.710;2023-03-03T07:19:41;26.08;;;9.73;;
32748;SDS011;19119;52.474;13.710;2023-03-03T07:22:13;29.08;;;9.25;;
32748;SDS011;19119;52.474;13.710;2023-03-03T07:24:41;23.67;;;8.25;;
32748;SDS011;19119;52.474;13.710;2023-03-03T07:27:13;29.10;;;10.30;;
32748;SDS011;19119;52.474;13.710;2023-03-03T07:29:52;29.42;;;8.90;;
32748;SDS011;19119;52.474;13.710;2023-03-03T07:32:27;32.20;;;9.52;;
32748;SDS011;19119;52.474;13.710;2023-03-03T07:35:51;24.15;;;10.77;;
32748;SDS011;19119;52.474;13.710;2023-03-03T07:37:54;27.88;;;9.23;;
32748;SDS011;19119;52.474;13.710;2023-03-03T07:40:24;26.83;;;9.00;;
32748;SDS011;19119;52.474;13.710;2023-03-03T07:42:57;41.28;;;11.90;;
32748;SDS011;19119;52.474;13.710;2023-03-03T07:45:26;29.73;;;10.35;;
32748;SDS011;19119;52.474;13.710;2023-03-03T07:47:54;35.90;;;11.02;;
32748;SDS011;19119;52.474;13.710;2023-03-03T07:50:27;24.58;;;9.65;;
32748;SDS011;19119;52.474;13.710;2023-03-03T07:52:53;41.85;;;11.85;;
32748;SDS011;19119;52.474;13.710;2023-03-03T07:55:32;37.67;;;11.43;;
32748;SDS011;19119;52.474;13.710;2023-03-03T08:03:52;27.42;;;9.85;;
32748;SDS011;19119;52.474;13.710;2023-03-03T08:09:01;35.55;;;10.98;;
32748;SDS011;19119;52.474;13.710;2023-03-03T08:11:50;30.42;;;9.27;;
32748;SDS011;19119;52.474;13.710;2023-03-03T08:14:29;31.17;;;9.50;;
32748;SDS011;19119;52.474;13.710;2023-03-03T08:16:57;24.38;;;8.30;;
32748;SDS011;19119;52.474;13.710;2023-03-03T08:19:23;26.88;;;8.95;;
32748;SDS011;19119;52.474;13.710;2023-03-03T08:21:49;25.33;;;9.10;;
32748;SDS011;19119;52.474;13.710;2023-03-03T08:24:15;27.67;;;9.93;;
32748;SDS011;19119;52.474;13.710;2023-03-03T08:26:41;27.90;;;10.38;;
32748;SDS011;19119;52.474;13.710;2023-03-03T08:29:07;24.00;;;9.02;;
32748;SDS011;19119;52.474;13.710;2023-03-03T08:31:33;29.25;;;11.25;;
32748;SDS011;19119;52.474;13.710;2023-03-03T08:33:58;28.40;;;10.38;;
32748;SDS011;19119;52.474;13.710;2023-03-03T08:36:24;27.77;;;10.15;;
32748;SDS011;19119;52.474;13.710;2023-03-03T08:38:50;24.48;;;9.52;;
32748;SDS011;19119;52.474;13.710;2023-03-03T08:41:15;30.08;;;11.82;;
32748;SDS011;19119;52.474;13.710;2023-03-03T08:43:41;31.65;;;10.77;;
32748;SDS011;19119;52.474;13.710;2023-03-03T08:46:09;35.75;;;11.05;;
32748;SDS011;19119;52.474;13.710;2023-03-03T08:48:35;37.40;;;11.85;;
32748;SDS011;19119;52.474;13.710;2023-03-03T08:51:01;29.52;;;10.77;;
32748;SDS011;19119;52.474;13.710;2023-03-03T08:53:27;29.67;;;10.70;;
32748;SDS011;19119;52.474;13.710;2023-03-03T08:55:53;38.33;;;12.77;;
32748;SDS011;19119;52.474;13.710;2023-03-03T08:58:19;28.10;;;12.35;;
32748;SDS011;19119;52.474;13.710;2023-03-03T09:00:45;41.45;;;13.07;;
32748;SDS011;19119;52.474;13.710;2023-03-03T09:03:11;29.20;;;10.48;;
32748;SDS011;19119;52.474;13.710;2023-03-03T09:05:37;35.78;;;10.63;;
32748;SDS011;19119;52.474;13.710;2023-03-03T09:08:04;33.78;;;10.57;;
32748;SDS011;19119;52.474;13.710;2023-03-03T09:10:30;31.65;;;10.63;;
32748;SDS011;19119;52.474;13.710;2023-03-03T09:12:57;33.53;;;10.75;;
32748;SDS011;19119;52.474;13.710;2023-03-03T09:15:28;38.97;;;11.50;;
32748;SDS011;19119;52.474;13.710;2023-03-03T09:20:47;33.75;;;10.65;;
32748;SDS011;19119;52.474;13.710;2023-03-03T09:23:31;38.72;;;10.35;;
32748;SDS011;19119;52.474;13.710;2023-03-03T09:28:48;32.53;;;10.65;;
32748;SDS011;19119;52.474;13.710;2023-03-03T09:31:48;36.35;;;11.98;;
32748;SDS011;19119;52.474;13.710;2023-03-03T09:36:54;33.45;;;11.43;;
32748;SDS011;19119;52.474;13.710;2023-03-03T09:39:21;33.60;;;11.65;;
32748;SDS011;19119;52.474;13.710;2023-03-03T09:47:34;44.00;;;11.50;;
32748;SDS011;19119;52.474;13.710;2023-03-03T09:50:25;29.23;;;8.43;;
32748;SDS011;19119;52.474;13.710;2023-03-03T09:53:09;41.85;;;12.77;;
32748;SDS011;19119;52.474;13.710;2023-03-03T10:01:32;37.63;;;11.50;;
32748;SDS011;19119;52.474;13.710;2023-03-03T10:04:16;39.78;;;12.32;;
32748;SDS011;19119;52.474;13.710;2023-03-03T10:09:36;34.92;;;11.35;;
32748;SDS011;19119;52.474;13.710;2023-03-03T10:24:14;33.85;;;11.10;;
32748;SDS011;19119;52.474;13.710;2023-03-03T10:51:37;25.45;;;9.25;;
32748;SDS011;19119;52.474;13.710;2023-03-03T10:54:48;23.20;;;8.15;;
32748;SDS011;19119;52.474;13.710;2023-03-03T11:05:35;23.48;;;8.75;;
32748;SDS011;19119;52.474;13.710;2023-03-03T11:08:21;22.25;;;9.52;;
32748;SDS011;19119;52.474;13.710;2023-03-03T11:10:53;20.30;;;8.48;;
32748;SDS011;19119;52.474;13.710;2023-03-03T11:16:30;21.55;;;8.80;;
32748;SDS011;19119;52.474;13.710;2023-03-03T11:19:20;25.42;;;9.23;;
32748;SDS011;19119;52.474;13.710;2023-03-03T11:22:16;21.55;;;8.23;;
32748;SDS011;19119;52.474;13.710;2023-03-03T11:35:43;23.73;;;9.77;;
32748;SDS011;19119;52.474;13.710;2023-03-03T11:38:18;32.25;;;10.85;;
32748;SDS011;19119;52.474;13.710;2023-03-03T11:43:29;21.63;;;9.50;;
32748;SDS011;19119;52.474;13.710;2023-03-03T11:46:14;24.08;;;10.00;;
32748;SDS011;19119;52.474;13.710;2023-03-03T11:53:57;25.67;;;10.18;;
32748;SDS011;19119;52.474;13.710;2023-03-03T12:01:57;18.20;;;7.95;;
32748;SDS011;19119;52.474;13.710;2023-03-03T12:04:33;19.52;;;8.85;;
32748;SDS011;19119;52.474;13.710;2023-03-03T12:12:22;30.25;;;11.60;;
32748;SDS011;19119;52.474;13.710;2023-03-03T12:18:07;22.05;;;9.40;;
32748;SDS011;19119;52.474;13.710;2023-03-03T12:26:37;25.58;;;11.88;;
32748;SDS011;19119;52.474;13.710;2023-03-03T12:31:54;21.58;;;9.05;;
32748;SDS011;19119;52.474;13.710;2023-03-03T12:34:32;16.70;;;7.78;;
32748;SDS011;19119;52.474;13.710;2023-03-03T12:37:14;21.45;;;9.05;;
32748;SDS011;19119;52.474;13.710;2023-03-03T12:48:51;20.42;;;7.15;;
32748;SDS011;19119;52.474;13.710;2023-03-03T12:54:33;17.65;;;7.40;;
32748;SDS011;19119;52.474;13.710;2023-03-03T12:59:35;18.13;;;8.27;;
32748;SDS011;19119;52.474;13.710;2023-03-03T13:05:23;21.73;;;8.45;;
32748;SDS011;19119;52.474;13.710;2023-03-03T13:10:45;26.65;;;9.73;;
32748;SDS011;19119;52.474;13.710;2023-03-03T13:16:23;22.08;;;8.68;;
32748;SDS011;19119;52.474;13.710;2023-03-03T13:19:03;25.73;;;10.25;;
32748;SDS011;19119;52.474;13.710;2023-03-03T13:21:41;24.08;;;10.15;;
32748;SDS011;19119;52.474;13.710;2023-03-03T13:24:28;23.30;;;9.43;;
32748;SDS011;19119;52.474;13.710;2023-03-03T13:27:03;22.42;;;9.52;;
32748;SDS011;19119;52.474;13.710;2023-03-03T13:29:40;23.23;;;9.38;;
32748;SDS011;19119;52.474;13.710;2023-03-03T13:32:17;23.80;;;10.43;;
32748;SDS011;19119;52.474;13.710;2023-03-03T13:39:51;21.38;;;8.43;;
32748;SDS011;19119;52.474;13.710;2023-03-03T13:42:36;19.58;;;7.57;;
32748;SDS011;19119;52.474;13.710;2023-03-03T13:45:21;19.27;;;8.07;;
32748;SDS011;19119;52.474;13.710;2023-03-03T13:50:30;16.33;;;6.78;;
32748;SDS011;19119;52.474;13.710;2023-03-03T13:53:05;16.95;;;6.93;;
32748;SDS011;19119;52.474;13.710;2023-03-03T13:55:42;17.13;;;6.53;;
32748;SDS011;19119;52.474;13.710;2023-03-03T14:01:16;18.38;;;7.50;;
32748;SDS011;19119;52.474;13.710;2023-03-03T14:03:58;18.30;;;7.15;;
32748;SDS011;19119;52.474;13.710;2023-03-03T14:06:28;13.07;;;6.25;;
32748;SDS011;19119;52.474;13.710;2023-03-03T14:11:39;18.52;;;7.13;;
32748;SDS011;19119;52.474;13.710;2023-03-03T14:19:51;18.20;;;7.30;;
32748;SDS011;19119;52.474;13.710;2023-03-03T14:22:41;15.63;;;6.90;;
32748;SDS011;19119;52.474;13.710;2023-03-03T14:25:15;20.60;;;7.68;;
32748;SDS011;19119;52.474;13.710;2023-03-03T14:35:48;21.95;;;8.35;;
32748;SDS011;19119;52.474;13.710;2023-03-03T14:48:55;20.98;;;7.45;;
32748;SDS011;19119;52.474;13.710;2023-03-03T14:51:24;22.50;;;8.73;;
32748;SDS011;19119;52.474;13.710;2023-03-03T14:53:56;20.80;;;7.75;;
32748;SDS011;19119;52.474;13.710;2023-03-03T14:58:53;17.73;;;7.55;;
32748;SDS011;19119;52.474;13.710;2023-03-03T15:01:34;20.60;;;7.07;;
32748;SDS011;19119;52.474;13.710;2023-03-03T15:04:01;18.58;;;6.88;;
32748;SDS011;19119;52.474;13.710;2023-03-03T15:06:32;19.00;;;7.95;;
32748;SDS011;19119;52.474;13.710;2023-03-03T15:11:49;20.30;;;8.75;;
32748;SDS011;19119;52.474;13.710;2023-03-03T15:14:20;19.73;;;8.07;;
32748;SDS011;19119;52.474;13.710;2023-03-03T15:16:53;15.43;;;7.00;;
32748;SDS011;19119;52.474;13.710;2023-03-03T15:19:43;26.35;;;9.52;;
32748;SDS011;19119;52.474;13.710;2023-03-03T15:28:00;18.45;;;8.18;;
32748;SDS011;19119;52.474;13.710;2023-03-03T15:30:52;19.08;;;7.47;;
32748;SDS011;19119;52.474;13.710;2023-03-03T15:33:40;16.05;;;6.68;;
32748;SDS011;19119;52.474;13.710;2023-03-03T15:39:18;19.92;;;7.85;;
32748;SDS011;19119;52.474;13.710;2023-03-03T15:56:27;20.42;;;7.57;;
32748;SDS011;19119;52.474;13.710;2023-03-03T16:04:47;18.95;;;6.80;;
32748;SDS011;19119;52.474;13.710;2023-03-03T16:07:34;20.95;;;7.45;;
32748;SDS011;19119;52.474;13.710;2023-03-03T16:10:13;15.00;;;6.78;;
32748;SDS011;19119;52.474;13.710;2023-03-03T16:12:56;15.93;;;7.15;;
32748;SDS011;19119;52.474;13.710;2023-03-03T16:18:30;16.00;;;7.22;;
32748;SDS011;19119;52.474;13.710;2023-03-03T16:21:17;20.60;;;9.02;;
32748;SDS011;19119;52.474;13.710;2023-03-03T16:23:58;22.55;;;8.82;;
32748;SDS011;19119;52.474;13.710;2023-03-03T16:27:35;23.77;;;10.32;;
32748;SDS011;19119;52.474;13.710;2023-03-03T16:33:02;16.50;;;7.40;;
32748;SDS011;19119;52.474;13.710;2023-03-03T16:35:38;17.08;;;5.78;;
32748;SDS011;19119;52.474;13.710;2023-03-03T16:38:26;14.30;;;6.18;;
32748;SDS011;19119;52.474;13.710;2023-03-03T16:40:59;16.02;;;6.50;;
32748;SDS011;19119;52.474;13.710;2023-03-03T16:46:10;13.65;;;6.32;;
32748;SDS011;19119;52.474;13.710;2023-03-03T16:48:52;11.88;;;6.57;;
32748;SDS011;19119;52.474;13.710;2023-03-03T16:51:55;15.13;;;5.63;;
32748;SDS011;19119;52.474;13.710;2023-03-03T17:08:20;17.00;;;6.47;;
32748;SDS011;19119;52.474;13.710;2023-03-03T17:24:47;14.45;;;5.95;;
32748;SDS011;19119;52.474;13.710;2023-03-03T17:30:34;11.88;;;5.72;;
32748;SDS011;19119;52.474;13.710;2023-03-03T17:38:56;15.05;;;6.75;;
32748;SDS011;19119;52.474;13.710;2023-03-03T17:44:07;19.35;;;6.32;;
32748;SDS011;19119;52.474;13.710;2023-03-03T17:46:47;13.93;;;6.45;;
32748;SDS011;19119;52.474;13.710;2023-03-03T17:49:45;20.23;;;9.68;;
32748;SDS011;19119;52.474;13.710;2023-03-03T18:06:29;21.60;;;7.03;;
32748;SDS011;19119;52.474;13.710;2023-03-03T18:09:16;18.80;;;7.32;;
32748;SDS011;19119;52.474;13.710;2023-03-03T18:12:09;20.58;;;9.15;;
32748;SDS011;19119;52.474;13.710;2023-03-03T18:22:32;13.48;;;7.30;;
32748;SDS011;19119;52.474;13.710;2023-03-03T18:25:13;15.52;;;7.15;;
32748;SDS011;19119;52.474;13.710;2023-03-03T18:27:42;14.43;;;6.38;;
32748;SDS011;19119;52.474;13.710;2023-03-03T18:32:46;15.20;;;7.25;;
32748;SDS011;19119;52.474;13.710;2023-03-03T18:35:44;17.13;;;6.47;;
32748;SDS011;19119;52.474;13.710;2023-03-03T18:38:24;19.10;;;7.68;;
32748;SDS011;19119;52.474;13.710;2023-03-03T18:41:04;15.80;;;7.00;;
32748;SDS011;19119;52.474;13.710;2023-03-03T18:46:11;16.20;;;6.78;;
32748;SDS011;19119;52.474;13.710;2023-03-03T18:49:08;14.63;;;6.80;;
32748;SDS011;19119;52.474;13.710;2023-03-03T18:57:03;13.73;;;7.43;;
32748;SDS011;19119;52.474;13.710;2023-03-03T19:02:11;18.30;;;7.25;;
32748;SDS011;19119;52.474;13.710;2023-03-03T19:04:54;17.65;;;7.32;;
32748;SDS011;19119;52.474;13.710;2023-03-03T19:12:56;15.88;;;5.72;;
32748;SDS011;19119;52.474;13.710;2023-03-03T19:23:17;13.30;;;6.78;;
32748;SDS011;19119;52.474;13.710;2023-03-03T19:26:13;15.18;;;7.60;;
32748;SDS011;19119;52.474;13.710;2023-03-03T19:34:22;19.42;;;7.95;;
32748;SDS011;19119;52.474;13.710;2023-03-03T19:42:37;13.30;;;7.65;;
32748;SDS011;19119;52.474;13.710;2023-03-03T19:47:50;18.10;;;7.53;;
32748;SDS011;19119;52.474;13.710;2023-03-03T19:50:31;16.27;;;7.47;;
32748;SDS011;19119;52.474;13.710;2023-03-03T20:04:43;20.55;;;8.10;;
32748;SDS011;19119;52.474;13.710;2023-03-03T20:07:20;18.33;;;7.22;;
32748;SDS011;19119;52.474;13.710;2023-03-03T20:18:32;19.88;;;8.68;;
32748;SDS011;19119;52.474;13.710;2023-03-03T20:26:44;18.92;;;7.50;;
32748;SDS011;19119;52.474;13.710;2023-03-03T20:35:03;14.13;;;7.18;;
32748;SDS011;19119;52.474;13.710;2023-03-03T20:37:45;19.40;;;7.50;;
32748;SDS011;19119;52.474;13.710;2023-03-03T20:40:34;19.65;;;7.35;;
32748;SDS011;19119;52.474;13.710;2023-03-03T20:43:29;21.40;;;9.77;;
32748;SDS011;19119;52.474;13.710;2023-03-03T20:46:20;18.15;;;6.72;;
32748;SDS011;19119;52.474;13.710;2023-03-03T20:51:50;18.30;;;7.53;;
32748;SDS011;19119;52.474;13.710;2023-03-03T20:56:55;18.52;;;7.78;;
32748;SDS011;19119;52.474;13.710;2023-03-03T20:59:48;18.02;;;6.82;;
32748;SDS011;19119;52.474;13.710;2023-03-03T21:02:23;16.98;;;7.65;;
32748;SDS011;19119;52.474;13.710;2023-03-03T21:05:10;17.15;;;7.57;;
32748;SDS011;19119;52.474;13.710;2023-03-03T21:10:17;15.10;;;5.85;;
32748;SDS011;19119;52.474;13.710;2023-03-03T21:12:48;17.02;;;7.78;;
32748;SDS011;19119;52.474;13.710;2023-03-03T21:15:31;17.13;;;5.75;;
32748;SDS011;19119;52.474;13.710;2023-03-03T21:18:18;16.08;;;6.68;;
32748;SDS011;19119;52.474;13.710;2023-03-03T21:20:49;13.85;;;5.13;;
32748;SDS011;19119;52.474;13.710;2023-03-03T21:23:15;11.73;;;5.55;;